createdAt,value
2022-11-15T00:01:40.370Z,100830.31
2022-11-15T00:05:00.673Z,100846.00
2022-11-15T00:08:21.463Z,100844.28
2022-11-15T00:11:41.803Z,100841.69
2022-11-15T00:15:02.242Z,100845.13
2022-11-15T00:18:22.105Z,100838.16
2022-11-15T00:21:42.202Z,100834.66
2022-11-15T00:25:02.086Z,100835.56
2022-11-15T00:28:22.224Z,100823.31
2022-11-15T00:31:42.483Z,100838.13
2022-11-15T00:35:02.533Z,100829.41
2022-11-15T00:38:22.544Z,100818.94
2022-11-15T00:41:42.756Z,100818.06
2022-11-15T00:45:03.322Z,100810.16
2022-11-15T00:48:23.289Z,100794.44
2022-11-15T00:51:43.239Z,100800.53
2022-11-15T00:55:03.355Z,100790.91
2022-11-15T00:58:23.541Z,100796.16
2022-11-15T01:01:43.315Z,100783.97
2022-11-15T01:05:04.039Z,100791.88
2022-11-15T01:08:24.009Z,100795.38
2022-11-15T01:11:43.808Z,100789.25
2022-11-15T01:15:05.404Z,100789.25
2022-11-15T01:18:25.479Z,100791.00
2022-11-15T01:21:45.728Z,100781.38
2022-11-15T01:25:05.838Z,100777.88
2022-11-15T01:28:25.652Z,100773.50
2022-11-15T01:31:45.819Z,100765.59
2022-11-15T01:35:05.939Z,100775.19
2022-11-15T01:38:26.135Z,100773.41
2022-11-15T01:41:46.112Z,100768.13
2022-11-15T01:45:06.657Z,100762.84
2022-11-15T01:48:33.186Z,100766.22
2022-11-15T01:51:55.299Z,100759.19
2022-11-15T01:55:19.986Z,100763.53
2022-11-15T01:58:41.868Z,100752.06
2022-11-15T02:02:02.034Z,100754.63
2022-11-15T02:05:21.865Z,100743.25
2022-11-15T02:08:42.396Z,100738.84
2022-11-15T02:12:03.079Z,100737.00
2022-11-15T02:15:27.858Z,100734.34
2022-11-15T02:19:06.155Z,100726.41
2022-11-15T02:22:56.342Z,100714.97
2022-11-15T02:26:34.061Z,100713.22
2022-11-15T02:30:07.067Z,100708.78
2022-11-15T02:33:43.753Z,100705.22
2022-11-15T02:37:14.319Z,100704.31
2022-11-15T02:40:52.459Z,100696.38
2022-11-15T02:44:18.270Z,100695.47
2022-11-15T02:47:44.079Z,100698.03
2022-11-15T02:51:05.434Z,100691.78
2022-11-15T02:54:29.386Z,100690.84
2022-11-15T02:57:58.092Z,100686.38
2022-11-15T03:01:36.600Z,100682.00
2022-11-15T03:05:35.108Z,100681.88
2022-11-15T03:09:10.034Z,100677.34
2022-11-15T03:12:55.456Z,100661.44
2022-11-15T03:16:21.028Z,100682.34
2022-11-15T03:19:47.824Z,100672.63
2022-11-15T03:23:11.438Z,100670.75
2022-11-15T03:26:34.387Z,100671.56
2022-11-15T03:30:00.286Z,100676.69
2022-11-15T03:33:22.879Z,100678.34
2022-11-15T03:36:44.428Z,100681.75
2022-11-15T03:40:05.403Z,100687.78
2022-11-15T03:43:40.682Z,100681.50
2022-11-15T03:47:22.827Z,100681.34
2022-11-15T03:50:44.788Z,100670.84
2022-11-15T03:54:05.500Z,100672.56
2022-11-15T03:57:25.477Z,100669.84
2022-11-15T04:00:45.645Z,100678.38
2022-11-15T04:04:05.348Z,100680.03
2022-11-15T04:07:25.286Z,100682.56
2022-11-15T04:10:45.563Z,100654.38
2022-11-15T04:14:05.499Z,100660.44
2022-11-15T04:17:25.236Z,100653.34
2022-11-15T04:20:45.345Z,100647.97
2022-11-15T04:24:05.590Z,100648.88
2022-11-15T04:27:25.865Z,100641.75
2022-11-15T04:30:46.488Z,100643.50
2022-11-15T04:34:06.657Z,100645.34
2022-11-15T04:37:26.602Z,100648.75
2022-11-15T04:40:47.459Z,100641.81
2022-11-15T04:44:07.450Z,100652.44
2022-11-15T04:47:27.705Z,100654.94
2022-11-15T04:50:50.998Z,100654.06
2022-11-15T04:54:10.968Z,100661.97
2022-11-15T04:57:31.126Z,100661.94
2022-11-15T05:00:51.087Z,100664.53
2022-11-15T05:04:11.275Z,100659.31
2022-11-15T05:07:31.179Z,100669.84
2022-11-15T05:10:51.490Z,100669.78
2022-11-15T05:14:12.247Z,100678.50
2022-11-15T05:17:32.246Z,100679.50
2022-11-15T05:20:52.300Z,100674.03
2022-11-15T05:24:12.564Z,100684.34
2022-11-15T05:27:34.035Z,100682.38
2022-11-15T05:30:54.256Z,100671.78
2022-11-15T05:34:14.464Z,100675.16
2022-11-15T05:37:34.371Z,100676.75
2022-11-15T05:40:55.387Z,100664.56
2022-11-15T05:44:19.488Z,100669.69
2022-11-15T05:47:40.700Z,100663.63
2022-11-15T05:51:00.976Z,100658.47
2022-11-15T05:54:24.137Z,100661.16
2022-11-15T05:57:45.665Z,100667.19
2022-11-15T06:01:06.075Z,100670.56
2022-11-15T06:04:26.382Z,100683.88
2022-11-15T06:07:46.454Z,100684.72
2022-11-15T06:11:07.870Z,100687.13
2022-11-15T06:14:28.158Z,100685.47
2022-11-15T06:17:48.312Z,100688.19
2022-11-15T06:21:08.455Z,100698.78
2022-11-15T06:24:28.240Z,100697.94
2022-11-15T06:27:55.636Z,100700.72
2022-11-15T06:31:15.478Z,100699.88
2022-11-15T06:34:35.631Z,100709.56
2022-11-15T06:37:56.418Z,100713.44
2022-11-15T06:41:16.422Z,100715.38
2022-11-15T06:44:36.792Z,100712.09
2022-11-15T06:47:57.282Z,100712.31
2022-11-15T06:51:17.054Z,100705.66
2022-11-15T06:54:37.202Z,100708.50
2022-11-15T06:57:57.077Z,100713.69
2022-11-15T07:01:17.199Z,100722.63
2022-11-15T07:04:37.543Z,100723.34
2022-11-15T07:07:58.620Z,100725.13
2022-11-15T07:11:18.598Z,100718.84
2022-11-15T07:14:38.926Z,100707.53
2022-11-15T07:18:02.077Z,100707.44
2022-11-15T07:21:27.257Z,100710.91
2022-11-15T07:24:47.684Z,100714.28
2022-11-15T07:28:07.560Z,100715.16
2022-11-15T07:31:27.482Z,100726.44
2022-11-15T07:34:47.575Z,100724.66
2022-11-15T07:38:07.827Z,100728.22
2022-11-15T07:41:27.951Z,100723.94
2022-11-15T07:44:48.147Z,100711.81
2022-11-15T07:48:08.409Z,100711.13
2022-11-15T07:51:28.584Z,100705.88
2022-11-15T07:54:48.706Z,100714.63
2022-11-15T07:58:11.222Z,100717.13
2022-11-15T08:01:31.416Z,100713.44
2022-11-15T08:04:51.595Z,100706.25
2022-11-15T08:08:12.436Z,100700.00
2022-11-15T08:11:32.918Z,100699.00
2022-11-15T08:14:52.929Z,100689.16
2022-11-15T08:18:15.184Z,100693.44
2022-11-15T08:21:35.422Z,100688.97
2022-11-15T08:24:55.549Z,100668.91
2022-11-15T08:28:17.244Z,100672.16
2022-11-15T08:31:37.851Z,100676.34
2022-11-15T08:34:57.811Z,100667.28
2022-11-15T08:38:17.825Z,100671.41
2022-11-15T08:41:38.364Z,100676.31
2022-11-15T08:44:58.317Z,100684.09
2022-11-15T08:48:18.548Z,100669.97
2022-11-15T08:51:38.830Z,100668.88
2022-11-15T08:54:59.249Z,100665.19
2022-11-15T08:58:19.215Z,100656.34
2022-11-15T09:01:39.327Z,100651.97
2022-11-15T09:04:59.337Z,100647.72
2022-11-15T09:08:45.926Z,100641.72
2022-11-15T09:12:02.532Z,100648.16
2022-11-15T09:15:22.732Z,100643.56
2022-11-15T09:18:43.003Z,100654.56
2022-11-15T09:22:06.759Z,100656.72
2022-11-15T09:25:26.888Z,100653.50
2022-11-15T09:28:46.711Z,100660.44
2022-11-15T09:32:06.882Z,100658.78
2022-11-15T09:35:27.100Z,100653.38
2022-11-15T09:38:47.884Z,100650.56
2022-11-15T09:42:16.411Z,100648.59
2022-11-15T09:46:06.240Z,100649.25
2022-11-15T09:49:29.089Z,100658.72
2022-11-15T09:52:49.670Z,100665.56
2022-11-15T09:56:02.499Z,100664.72
2022-11-15T09:59:27.141Z,100651.47
2022-11-15T10:02:40.789Z,100652.31
2022-11-15T10:05:44.790Z,100643.56
2022-11-15T10:09:07.772Z,100631.28
2022-11-15T10:12:10.533Z,100622.28
2022-11-15T10:15:17.640Z,100615.81
2022-11-15T10:18:31.981Z,100602.41
2022-11-15T10:21:51.796Z,100598.13
2022-11-15T10:25:17.483Z,100588.41
2022-11-15T10:28:26.857Z,100596.88
2022-11-15T10:31:29.791Z,100596.50
2022-11-15T10:34:37.087Z,100601.41
2022-11-15T10:37:38.508Z,100595.00
2022-11-15T10:40:41.712Z,100588.06
2022-11-15T10:43:43.565Z,100580.75
2022-11-15T10:46:48.062Z,100584.72
2022-11-15T10:49:58.297Z,100561.38
2022-11-15T10:53:02.482Z,100565.59
2022-11-15T10:56:06.275Z,100562.84
2022-11-15T10:59:18.587Z,100560.56
2022-11-15T11:02:38.423Z,100555.78
2022-11-15T11:05:42.930Z,100556.69
2022-11-15T11:09:03.451Z,100559.94
2022-11-15T11:12:10.646Z,100552.66
2022-11-15T11:15:15.357Z,100557.03
2022-11-15T11:18:30.536Z,100539.22
2022-11-15T11:21:58.359Z,100543.56
2022-11-15T11:25:29.176Z,100537.78
2022-11-15T11:29:03.343Z,100523.66
2022-11-15T11:32:23.050Z,100517.44
2022-11-15T11:35:37.581Z,100508.81
2022-11-15T11:38:48.228Z,100489.03
2022-11-15T11:42:10.787Z,100479.38
2022-11-15T11:45:14.649Z,100487.06
2022-11-15T11:48:42.555Z,100481.50
2022-11-15T11:51:55.603Z,100481.00
2022-11-15T11:54:56.964Z,100473.63
2022-11-15T11:58:20.380Z,100468.44
2022-11-15T12:01:26.176Z,100463.44
2022-11-15T12:04:38.383Z,100454.06
2022-11-15T12:07:41.954Z,100457.16
2022-11-15T12:10:49.697Z,100452.03
2022-11-15T12:13:58.483Z,100436.91
2022-11-15T12:17:00.450Z,100429.56
2022-11-15T12:20:16.019Z,100427.81
2022-11-15T12:23:59.500Z,100414.13
2022-11-15T12:27:23.361Z,100414.13
2022-11-15T12:30:42.762Z,100403.16
2022-11-15T12:33:46.722Z,100400.00
2022-11-15T12:36:50.078Z,100390.31
2022-11-15T12:40:09.742Z,100389.94
2022-11-15T12:43:39.518Z,100381.63
2022-11-15T12:46:40.871Z,100390.28
2022-11-15T12:49:42.278Z,100378.13
2022-11-15T12:53:24.652Z,100382.84
2022-11-15T12:56:26.099Z,100372.72
2022-11-15T12:59:57.071Z,100367.44
2022-11-15T13:03:22.363Z,100360.28
2022-11-15T13:06:58.003Z,100349.72
2022-11-15T13:09:59.523Z,100345.53
2022-11-15T13:13:03.775Z,100345.16
2022-11-15T13:16:05.521Z,100346.31
2022-11-15T13:19:10.749Z,100337.69
2022-11-15T13:22:12.386Z,100338.84
2022-11-15T13:25:23.917Z,100333.06
2022-11-15T13:28:43.377Z,100332.44
2022-11-15T13:31:46.189Z,100327.16
2022-11-15T13:34:52.491Z,100317.78
2022-11-15T13:37:56.392Z,100317.03
2022-11-15T13:40:59.275Z,100306.72
2022-11-15T13:44:02.893Z,100294.38
2022-11-15T13:47:07.188Z,100296.28
2022-11-15T13:50:13.673Z,100285.78
2022-11-15T13:53:15.217Z,100282.16
2022-11-15T13:56:18.682Z,100282.28
2022-11-15T13:59:27.630Z,100270.97
2022-11-15T14:02:32.464Z,100258.34
2022-11-15T14:05:34.097Z,100251.59
2022-11-15T14:08:36.599Z,100250.63
2022-11-15T14:11:49.599Z,100238.22
2022-11-15T14:14:51.520Z,100229.47
2022-11-15T14:17:52.940Z,100224.28
2022-11-15T14:21:09.912Z,100211.94
2022-11-15T14:24:19.794Z,100206.69
2022-11-15T14:27:27.280Z,100206.78
2022-11-15T14:30:28.716Z,100198.94
2022-11-15T14:33:30.111Z,100197.84
2022-11-15T14:36:31.494Z,100199.69
2022-11-15T14:39:32.916Z,100198.19
2022-11-15T14:42:34.298Z,100184.19
2022-11-15T14:45:36.163Z,100185.22
2022-11-15T14:48:37.631Z,100170.03
2022-11-15T14:51:39.168Z,100168.00
2022-11-15T14:54:40.611Z,100174.09
2022-11-15T14:57:42.037Z,100162.00
2022-11-15T15:00:43.530Z,100153.34
2022-11-15T15:03:44.973Z,100156.00
2022-11-15T15:06:46.481Z,100151.53
2022-11-15T15:09:48.002Z,100143.59
2022-11-15T15:12:49.583Z,100146.53
2022-11-15T15:15:52.649Z,100135.25
2022-11-15T15:18:55.158Z,100133.50
2022-11-15T15:21:56.614Z,100135.34
2022-11-15T15:24:58.049Z,100137.22
2022-11-15T15:28:00.263Z,100130.28
2022-11-15T15:31:02.750Z,100121.44
2022-11-15T15:34:04.192Z,100125.78
2022-11-15T15:37:08.897Z,100126.72
2022-11-15T15:40:14.080Z,100126.63
2022-11-15T15:43:16.670Z,100125.88
2022-11-15T15:46:20.252Z,100116.16
2022-11-15T15:49:21.708Z,100117.09
2022-11-15T15:52:23.159Z,100111.16
2022-11-15T15:55:25.487Z,100112.00
2022-11-15T15:58:26.919Z,100105.75
2022-11-15T16:01:28.401Z,100099.69
2022-11-15T16:04:30.016Z,100109.59
2022-11-15T16:07:31.513Z,100103.75
2022-11-15T16:10:34.625Z,100104.56
2022-11-15T16:13:36.025Z,100101.56
2022-11-15T16:16:38.587Z,100101.06
2022-11-15T16:19:39.995Z,100097.16
2022-11-15T16:22:41.426Z,100094.94
2022-11-15T16:25:46.812Z,100090.88
2022-11-15T16:28:48.617Z,100098.94
2022-11-15T16:31:50.017Z,100100.03
2022-11-15T16:34:51.423Z,100096.59
2022-11-15T16:37:52.820Z,100093.28
2022-11-15T16:40:54.323Z,100088.69
2022-11-15T16:43:55.750Z,100088.66
2022-11-15T16:46:57.232Z,100083.56
2022-11-15T16:49:58.760Z,100083.41
2022-11-15T16:53:00.936Z,100079.03
2022-11-15T16:56:02.536Z,100078.16
2022-11-15T16:59:04.065Z,100079.03
2022-11-15T17:02:12.266Z,100073.81
2022-11-15T17:05:19.916Z,100080.84
2022-11-15T17:08:21.862Z,100076.44
2022-11-15T17:11:23.499Z,100071.16
2022-11-15T17:14:24.931Z,100069.34
2022-11-15T17:17:26.323Z,100061.59
2022-11-15T17:20:27.780Z,100067.63
2022-11-15T17:23:29.228Z,100056.09
2022-11-15T17:26:33.211Z,100062.25
2022-11-15T17:29:36.572Z,100057.00
2022-11-15T17:32:38.125Z,100060.44
2022-11-15T17:35:39.535Z,100057.88
2022-11-15T17:38:44.481Z,100055.28
2022-11-15T17:41:46.547Z,100057.00
2022-11-15T17:44:47.926Z,100057.09
2022-11-15T17:47:49.318Z,100049.09
2022-11-15T17:50:58.743Z,100044.75
2022-11-15T17:54:00.455Z,100048.09
2022-11-15T17:57:01.948Z,100037.56
2022-11-15T18:00:03.967Z,100038.38
2022-11-15T18:03:05.631Z,100034.69
2022-11-15T18:06:08.524Z,100035.50
2022-11-15T18:09:09.929Z,100019.69
2022-11-15T18:12:12.435Z,100028.94
2022-11-15T18:15:13.943Z,100025.34
2022-11-15T18:18:15.329Z,100025.22
2022-11-15T18:21:22.816Z,100027.63
2022-11-15T18:24:35.786Z,100027.72
2022-11-15T18:27:37.195Z,100027.72
2022-11-15T18:30:38.775Z,100015.38
2022-11-15T18:33:40.231Z,100031.16
2022-11-15T18:36:41.652Z,100020.75
2022-11-15T18:39:43.072Z,100010.34
2022-11-15T18:42:44.526Z,100006.91
2022-11-15T18:45:46.405Z,100006.78
2022-11-15T18:48:52.238Z,100002.44
2022-11-15T18:51:53.750Z,100004.19
2022-11-15T18:54:55.308Z,100004.97
2022-11-15T18:57:56.799Z,99998.81
2022-11-15T19:01:06.229Z,100006.78
2022-11-15T19:04:13.953Z,100005.75
2022-11-15T19:07:15.572Z,100001.63
2022-11-15T19:10:17.184Z,100001.44
2022-11-15T19:13:18.728Z,100003.25
2022-11-15T19:16:20.250Z,99997.84
2022-11-15T19:19:26.582Z,99999.56
2022-11-15T19:22:28.064Z,99997.84
2022-11-15T19:25:29.616Z,99997.84
2022-11-15T19:28:32.136Z,99994.28
2022-11-15T19:31:33.999Z,99986.47
2022-11-15T19:34:35.576Z,99982.94
2022-11-15T19:37:37.177Z,99985.47
2022-11-15T19:40:38.761Z,99983.72
2022-11-15T19:43:43.183Z,99992.44
2022-11-15T19:46:44.819Z,99986.22
2022-11-15T19:49:46.446Z,99983.72
2022-11-15T19:52:47.874Z,99996.75
2022-11-15T19:55:57.592Z,99980.09
2022-11-15T19:58:59.160Z,99972.94
2022-11-15T20:02:00.580Z,99969.44
2022-11-15T20:05:01.998Z,99972.88
2022-11-15T20:08:03.501Z,99973.63
2022-11-15T20:11:05.589Z,99971.84
2022-11-15T20:14:07.214Z,99966.47
2022-11-15T20:17:08.659Z,99963.91
2022-11-15T20:20:10.426Z,99970.81
2022-11-15T20:23:12.447Z,99966.38
2022-11-15T20:26:14.164Z,99964.63
2022-11-15T20:29:16.096Z,99962.00
2022-11-15T20:32:17.588Z,99955.00
2022-11-15T20:35:19.027Z,99961.19
2022-11-15T20:38:21.326Z,99960.28
2022-11-15T20:41:22.975Z,99962.03
2022-11-15T20:44:24.548Z,99962.84
2022-11-15T20:47:30.129Z,99959.41
2022-11-15T20:50:46.658Z,99963.72
2022-11-15T20:53:48.803Z,99960.16
2022-11-15T20:56:50.440Z,99953.09
2022-11-15T20:59:51.944Z,99951.19
2022-11-15T21:02:53.416Z,99944.22
2022-11-15T21:05:55.069Z,99945.09
2022-11-15T21:08:56.843Z,99937.91
2022-11-15T21:11:59.086Z,99937.00
2022-11-15T21:15:00.719Z,99932.75
2022-11-15T21:18:02.309Z,99924.00
2022-11-15T21:21:05.834Z,99929.19
2022-11-15T21:24:09.776Z,99929.94
2022-11-15T21:27:12.113Z,99919.34
2022-11-15T21:30:13.696Z,99921.19
2022-11-15T21:33:15.381Z,99915.00
2022-11-15T21:36:17.178Z,99901.81
2022-11-15T21:39:18.645Z,99900.09
2022-11-15T21:42:20.066Z,99903.66
2022-11-15T21:45:21.486Z,99898.19
2022-11-15T21:48:22.899Z,99894.72
2022-11-15T21:51:24.783Z,99903.28
2022-11-15T21:54:26.198Z,99897.03
2022-11-15T21:57:27.672Z,99889.06
2022-11-15T22:00:29.087Z,99893.53
2022-11-15T22:03:30.777Z,99884.66
2022-11-15T22:06:33.007Z,99888.22
2022-11-15T22:09:34.402Z,99885.56
2022-11-15T22:12:35.838Z,99888.03
2022-11-15T22:15:37.276Z,99885.31
2022-11-15T22:18:39.086Z,99874.69
2022-11-15T22:21:40.770Z,99874.56
2022-11-15T22:24:42.175Z,99869.38
2022-11-15T22:27:43.604Z,99866.63
2022-11-15T22:30:49.663Z,99858.50
2022-11-15T22:33:51.093Z,99855.88
2022-11-15T22:37:18.730Z,99844.41
2022-11-15T22:40:13.928Z,99845.25
2022-11-15T22:43:17.170Z,99845.06
2022-11-15T22:46:18.583Z,99840.69
2022-11-15T22:49:19.994Z,99841.56
2022-11-15T22:52:21.421Z,99832.75
2022-11-15T22:55:22.836Z,99839.75
2022-11-15T22:58:26.686Z,99836.22
2022-11-15T23:01:28.081Z,99834.50
2022-11-15T23:04:29.475Z,99834.50
2022-11-15T23:07:31.723Z,99831.88
2022-11-15T23:10:33.136Z,99830.97
2022-11-15T23:13:34.711Z,99827.31
2022-11-15T23:16:36.142Z,99823.91
2022-11-15T23:19:37.595Z,99823.97
2022-11-15T23:22:39.014Z,99823.03
2022-11-15T23:25:40.418Z,99828.19
2022-11-15T23:28:41.824Z,99829.91
2022-11-15T23:31:44.269Z,99826.47
2022-11-15T23:34:46.033Z,99822.91
2022-11-15T23:37:47.443Z,99835.31
2022-11-15T23:40:53.060Z,99819.50
2022-11-15T23:43:54.507Z,99824.69
2022-11-15T23:46:55.914Z,99818.50
2022-11-15T23:49:57.315Z,99816.84
2022-11-15T23:52:58.914Z,99811.56
2022-11-15T23:56:11.749Z,99813.50
2022-11-15T23:59:13.178Z,99824.75
